sensor_id;sensor_type;location;lat;lon;timestamp;pressure;altitude;pressure_sealevel;temperature;humidity
63090;BME280;49174;43.198;27.824;2023-02-23T03:31:49;101803.91;;;1.96;96.23
63090;BME280;49174;43.198;27.824;2023-02-23T03:34:43;101804.63;;;1.98;96.68
63090;BME280;49174;43.198;27.824;2023-02-23T03:53:47;101816.50;;;2.05;98.50
63090;BME280;49174;43.198;27.824;2023-02-23T04:01:43;101822.81;;;2.04;94.45
63090;BME280;49174;43.198;27.824;2023-02-23T04:09:52;101825.47;;;2.04;97.67
63090;BME280;49174;43.198;27.824;2023-02-23T04:12:49;101833.44;;;2.04;97.42
63090;BME280;49174;43.198;27.824;2023-02-23T04:15:38;101834.16;;;2.06;98.81
63090;BME280;49174;43.198;27.824;2023-02-23T04:18:06;101828.28;;;2.14;99.12
63090;BME280;49174;43.198;27.824;2023-02-23T04:20:35;101833.06;;;2.33;97.42
63090;BME280;49174;43.198;27.824;2023-02-23T04:23:01;101826.16;;;2.30;96.55
63090;BME280;49174;43.198;27.824;2023-02-23T04:25:28;101830.59;;;2.18;97.89
63090;BME280;49174;43.198;27.824;2023-02-23T04:27:53;101828.78;;;2.19;98.10
63090;BME280;49174;43.198;27.824;2023-02-23T04:30:19;101826.75;;;2.34;98.59
63090;BME280;49174;43.198;27.824;2023-02-23T04:32:47;101833.91;;;2.33;97.44
63090;BME280;49174;43.198;27.824;2023-02-23T04:35:13;101827.00;;;2.31;98.71
63090;BME280;49174;43.198;27.824;2023-02-23T04:37:39;101840.06;;;2.34;99.59
63090;BME280;49174;43.198;27.824;2023-02-23T04:40:05;101836.34;;;2.36;98.52
63090;BME280;49174;43.198;27.824;2023-02-23T04:42:31;101831.28;;;2.44;99.73
63090;BME280;49174;43.198;27.824;2023-02-23T04:44:56;101847.16;;;2.46;100.00
63090;BME280;49174;43.198;27.824;2023-02-23T04:47:24;101845.00;;;2.62;99.03
63090;BME280;49174;43.198;27.824;2023-02-23T04:49:49;101835.44;;;2.60;99.21
63090;BME280;49174;43.198;27.824;2023-02-23T04:52:15;101844.03;;;2.63;99.26
63090;BME280;49174;43.198;27.824;2023-02-23T04:54:41;101846.19;;;2.58;99.35
63090;BME280;49174;43.198;27.824;2023-02-23T04:57:08;101836.53;;;2.57;99.38
63090;BME280;49174;43.198;27.824;2023-02-23T04:59:34;101854.94;;;2.60;99.97
63090;BME280;49174;43.198;27.824;2023-02-23T05:02:00;101844.75;;;2.54;99.33
63090;BME280;49174;43.198;27.824;2023-02-23T05:04:25;101849.59;;;2.60;100.00
63090;BME280;49174;43.198;27.824;2023-02-23T05:06:51;101850.59;;;2.59;100.00
63090;BME280;49174;43.198;27.824;2023-02-23T05:09:17;101854.09;;;2.71;100.00
63090;BME280;49174;43.198;27.824;2023-02-23T05:11:42;101857.03;;;2.79;100.00
63090;BME280;49174;43.198;27.824;2023-02-23T05:14:08;101867.56;;;2.81;100.00
63090;BME280;49174;43.198;27.824;2023-02-23T05:16:34;101860.19;;;2.84;100.00
63090;BME280;49174;43.198;27.824;2023-02-23T05:19:00;101860.44;;;2.93;100.00
63090;BME280;49174;43.198;27.824;2023-02-23T05:21:26;101864.22;;;3.01;100.00
63090;BME280;49174;43.198;27.824;2023-02-23T05:23:51;101868.06;;;3.08;100.00
63090;BME280;49174;43.198;27.824;2023-02-23T05:26:17;101876.81;;;3.10;100.00
63090;BME280;49174;43.198;27.824;2023-02-23T05:28:43;101871.84;;;3.17;100.00
63090;BME280;49174;43.198;27.824;2023-02-23T05:31:09;101879.72;;;3.19;100.00
63090;BME280;49174;43.198;27.824;2023-02-23T05:33:35;101879.38;;;3.34;100.00
63090;BME280;49174;43.198;27.824;2023-02-23T05:36:11;101883.97;;;3.44;100.00
63090;BME280;49174;43.198;27.824;2023-02-23T05:38:37;101886.03;;;3.51;100.00
63090;BME280;49174;43.198;27.824;2023-02-23T05:41:08;101889.78;;;3.60;100.00
63090;BME280;49174;43.198;27.824;2023-02-23T05:43:34;101899.59;;;3.71;100.00
63090;BME280;49174;43.198;27.824;2023-02-23T05:46:00;101898.09;;;3.78;100.00
63090;BME280;49174;43.198;27.824;2023-02-23T05:48:27;101903.81;;;3.85;100.00
63090;BME280;49174;43.198;27.824;2023-02-23T05:50:53;101909.47;;;4.02;100.00
63090;BME280;49174;43.198;27.824;2023-02-23T05:53:18;101915.03;;;4.11;100.00
63090;BME280;49174;43.198;27.824;2023-02-23T05:55:44;101919.59;;;4.20;100.00
63090;BME280;49174;43.198;27.824;2023-02-23T05:58:09;101921.97;;;4.34;100.00
63090;BME280;49174;43.198;27.824;2023-02-23T06:00:35;101929.72;;;4.48;100.00
63090;BME280;49174;43.198;27.824;2023-02-23T06:03:00;101925.44;;;4.57;100.00
63090;BME280;49174;43.198;27.824;2023-02-23T06:05:26;101921.81;;;4.68;100.00
63090;BME280;49174;43.198;27.824;2023-02-23T06:07:52;101926.25;;;4.79;100.00
63090;BME280;49174;43.198;27.824;2023-02-23T06:10:18;101925.94;;;4.93;100.00
63090;BME280;49174;43.198;27.824;2023-02-23T06:12:43;101931.28;;;5.14;100.00
63090;BME280;49174;43.198;27.824;2023-02-23T06:15:09;101926.88;;;5.34;100.00
63090;BME280;49174;43.198;27.824;2023-02-23T06:17:35;101929.19;;;5.48;100.00
63090;BME280;49174;43.198;27.824;2023-02-23T06:20:00;101929.81;;;5.62;100.00
63090;BME280;49174;43.198;27.824;2023-02-23T06:22:29;101936.75;;;5.74;100.00
63090;BME280;49174;43.198;27.824;2023-02-23T06:24:54;101934.97;;;5.84;100.00
63090;BME280;49174;43.198;27.824;2023-02-23T06:27:20;101934.75;;;5.97;100.00
63090;BME280;49174;43.198;27.824;2023-02-23T06:29:46;101942.66;;;6.08;100.00
63090;BME280;49174;43.198;27.824;2023-02-23T06:32:11;101941.00;;;6.26;100.00
63090;BME280;49174;43.198;27.824;2023-02-23T06:34:37;101942.72;;;6.47;100.00
63090;BME280;49174;43.198;27.824;2023-02-23T06:37:02;101938.19;;;6.67;100.00
63090;BME280;49174;43.198;27.824;2023-02-23T06:39:28;101942.97;;;6.92;100.00
63090;BME280;49174;43.198;27.824;2023-02-23T06:41:53;101950.28;;;7.10;100.00
63090;BME280;49174;43.198;27.824;2023-02-23T06:44:19;101954.50;;;7.22;100.00
63090;BME280;49174;43.198;27.824;2023-02-23T06:46:44;101957.84;;;7.34;100.00
63090;BME280;49174;43.198;27.824;2023-02-23T06:49:10;101962.91;;;7.47;100.00
63090;BME280;49174;43.198;27.824;2023-02-23T06:51:39;101956.88;;;7.63;100.00
63090;BME280;49174;43.198;27.824;2023-02-23T06:54:04;101956.88;;;7.72;100.00
63090;BME280;49174;43.198;27.824;2023-02-23T06:56:30;101958.34;;;7.84;99.95
63090;BME280;49174;43.198;27.824;2023-02-23T06:58:55;101956.47;;;7.95;99.06
63090;BME280;49174;43.198;27.824;2023-02-23T07:01:21;101964.06;;;7.99;97.88
63090;BME280;49174;43.198;27.824;2023-02-23T07:03:47;101959.47;;;8.10;96.85
63090;BME280;49174;43.198;27.824;2023-02-23T07:06:12;101962.44;;;8.16;96.99
63090;BME280;49174;43.198;27.824;2023-02-23T07:08:38;101960.66;;;8.25;95.95
63090;BME280;49174;43.198;27.824;2023-02-23T07:11:09;101964.13;;;8.35;95.66
63090;BME280;49174;43.198;27.824;2023-02-23T07:13:34;101968.63;;;8.44;95.51
63090;BME280;49174;43.198;27.824;2023-02-23T07:16:01;101977.16;;;8.58;94.75
63090;BME280;49174;43.198;27.824;2023-02-23T07:18:26;101977.78;;;8.69;93.68
63090;BME280;49174;43.198;27.824;2023-02-23T07:20:52;101974.09;;;8.70;93.13
63090;BME280;49174;43.198;27.824;2023-02-23T07:23:18;101990.44;;;8.77;93.04
63090;BME280;49174;43.198;27.824;2023-02-23T07:25:44;101981.78;;;8.83;92.18
63090;BME280;49174;43.198;27.824;2023-02-23T07:28:10;101980.00;;;8.74;91.67
63090;BME280;49174;43.198;27.824;2023-02-23T07:30:38;101984.22;;;8.77;91.78
63090;BME280;49174;43.198;27.824;2023-02-23T07:33:04;101979.59;;;8.69;92.24
63090;BME280;49174;43.198;27.824;2023-02-23T07:35:30;101984.00;;;8.70;91.88
63090;BME280;49174;43.198;27.824;2023-02-23T07:37:55;101976.00;;;8.78;91.91
63090;BME280;49174;43.198;27.824;2023-02-23T07:40:21;101982.84;;;8.72;92.13
63090;BME280;49174;43.198;27.824;2023-02-23T07:42:46;101979.47;;;8.70;91.94
63090;BME280;49174;43.198;27.824;2023-02-23T07:45:12;101990.44;;;8.77;92.38
63090;BME280;49174;43.198;27.824;2023-02-23T07:47:37;101986.47;;;8.81;92.50
63090;BME280;49174;43.198;27.824;2023-02-23T07:50:04;101993.31;;;8.76;92.77
63090;BME280;49174;43.198;27.824;2023-02-23T07:52:36;101995.22;;;8.83;92.79
63090;BME280;49174;43.198;27.824;2023-02-23T07:55:03;101997.31;;;8.89;92.70
63090;BME280;49174;43.198;27.824;2023-02-23T07:57:28;102004.53;;;8.89;92.92
63090;BME280;49174;43.198;27.824;2023-02-23T07:59:54;102002.59;;;8.99;93.09
63090;BME280;49174;43.198;27.824;2023-02-23T08:02:19;102011.13;;;9.12;92.55
63090;BME280;49174;43.198;27.824;2023-02-23T08:04:44;102008.34;;;9.04;92.77
63090;BME280;49174;43.198;27.824;2023-02-23T08:07:10;102009.03;;;9.06;92.63
63090;BME280;49174;43.198;27.824;2023-02-23T08:09:36;102019.03;;;9.14;91.96
63090;BME280;49174;43.198;27.824;2023-02-23T08:12:02;102016.56;;;9.21;91.61
63090;BME280;49174;43.198;27.824;2023-02-23T08:14:27;102015.03;;;9.18;91.53
63090;BME280;49174;43.198;27.824;2023-02-23T08:16:53;102021.34;;;9.09;91.96
63090;BME280;49174;43.198;27.824;2023-02-23T08:19:27;102019.03;;;9.14;91.69
63090;BME280;49174;43.198;27.824;2023-02-23T08:21:53;102025.97;;;8.99;92.57
63090;BME280;49174;43.198;27.824;2023-02-23T08:24:20;102025.34;;;9.05;92.82
63090;BME280;49174;43.198;27.824;2023-02-23T08:26:46;102028.50;;;9.18;92.95
63090;BME280;49174;43.198;27.824;2023-02-23T08:29:11;102031.69;;;9.39;92.05
63090;BME280;49174;43.198;27.824;2023-02-23T08:31:37;102031.63;;;9.31;90.98
63090;BME280;49174;43.198;27.824;2023-02-23T08:34:02;102036.38;;;9.37;90.81
63090;BME280;49174;43.198;27.824;2023-02-23T08:36:28;102043.13;;;9.42;90.78
63090;BME280;49174;43.198;27.824;2023-02-23T08:38:53;102036.91;;;9.41;91.00
63090;BME280;49174;43.198;27.824;2023-02-23T08:41:19;102039.00;;;9.29;91.37
63090;BME280;49174;43.198;27.824;2023-02-23T08:43:46;102044.00;;;9.42;90.99
63090;BME280;49174;43.198;27.824;2023-02-23T08:46:11;102052.50;;;9.55;89.12
63090;BME280;49174;43.198;27.824;2023-02-23T08:48:37;102055.09;;;9.39;90.25
63090;BME280;49174;43.198;27.824;2023-02-23T08:51:05;102053.63;;;9.45;89.69
63090;BME280;49174;43.198;27.824;2023-02-23T08:53:31;102055.22;;;9.37;90.08
63090;BME280;49174;43.198;27.824;2023-02-23T08:56:01;102054.66;;;9.26;87.88
63090;BME280;49174;43.198;27.824;2023-02-23T08:58:28;102060.00;;;9.44;86.42
63090;BME280;49174;43.198;27.824;2023-02-23T09:00:54;102063.25;;;9.29;88.10
63090;BME280;49174;43.198;27.824;2023-02-23T09:03:21;102070.06;;;9.42;87.00
63090;BME280;49174;43.198;27.824;2023-02-23T09:05:47;102067.50;;;9.58;87.25
63090;BME280;49174;43.198;27.824;2023-02-23T09:08:13;102076.00;;;9.71;86.34
63090;BME280;49174;43.198;27.824;2023-02-23T09:10:39;102068.38;;;9.40;86.38
63090;BME280;49174;43.198;27.824;2023-02-23T09:13:10;102074.72;;;9.31;87.10
63090;BME280;49174;43.198;27.824;2023-02-23T09:15:39;102069.78;;;9.27;87.30
63090;BME280;49174;43.198;27.824;2023-02-23T09:18:08;102077.34;;;9.23;88.52
63090;BME280;49174;43.198;27.824;2023-02-23T09:20:34;102079.47;;;9.37;88.57
63090;BME280;49174;43.198;27.824;2023-02-23T09:23:00;102078.38;;;9.74;87.33
63090;BME280;49174;43.198;27.824;2023-02-23T09:25:26;102085.00;;;9.80;85.75
63090;BME280;49174;43.198;27.824;2023-02-23T09:27:54;102084.56;;;9.67;86.24
63090;BME280;49174;43.198;27.824;2023-02-23T09:30:24;102100.63;;;9.50;86.95
63090;BME280;49174;43.198;27.824;2023-02-23T09:32:50;102093.47;;;9.59;86.12
63090;BME280;49174;43.198;27.824;2023-02-23T09:35:17;102099.41;;;9.45;85.81
63090;BME280;49174;43.198;27.824;2023-02-23T09:37:46;102102.91;;;9.63;86.25
63090;BME280;49174;43.198;27.824;2023-02-23T09:40:24;102098.09;;;9.49;85.65
63090;BME280;49174;43.198;27.824;2023-02-23T09:48:26;102102.84;;;9.55;86.57
63090;BME280;49174;43.198;27.824;2023-02-23T09:50:55;102099.50;;;9.61;86.43
63090;BME280;49174;43.198;27.824;2023-02-23T09:53:31;102112.75;;;9.72;86.58
63090;BME280;49174;43.198;27.824;2023-02-23T09:55:59;102104.56;;;9.82;85.37
63090;BME280;49174;43.198;27.824;2023-02-23T09:58:28;102106.34;;;9.73;84.93
63090;BME280;49174;43.198;27.824;2023-02-23T10:03:30;102113.69;;;9.63;84.01
63090;BME280;49174;43.198;27.824;2023-02-23T10:06:01;102115.22;;;9.66;83.24
63090;BME280;49174;43.198;27.824;2023-02-23T10:11:28;102117.13;;;9.47;84.15
63090;BME280;49174;43.198;27.824;2023-02-23T10:14:55;102119.00;;;9.73;83.78
63090;BME280;49174;43.198;27.824;2023-02-23T10:17:18;102114.81;;;9.78;83.72
63090;BME280;49174;43.198;27.824;2023-02-23T10:22:20;102117.72;;;9.85;83.80
63090;BME280;49174;43.198;27.824;2023-02-23T10:24:55;102121.13;;;9.69;84.13
63090;BME280;49174;43.198;27.824;2023-02-23T10:27:35;102108.88;;;9.75;83.72
63090;BME280;49174;43.198;27.824;2023-02-23T10:30:03;102111.00;;;9.63;84.61
63090;BME280;49174;43.198;27.824;2023-02-23T10:32:40;102104.31;;;9.49;84.73
63090;BME280;49174;43.198;27.824;2023-02-23T10:35:26;102101.16;;;9.36;85.73
63090;BME280;49174;43.198;27.824;2023-02-23T10:37:53;102111.41;;;9.32;85.99
63090;BME280;49174;43.198;27.824;2023-02-23T10:40:22;102120.47;;;9.49;86.33
63090;BME280;49174;43.198;27.824;2023-02-23T10:42:51;102113.88;;;9.44;85.57
63090;BME280;49174;43.198;27.824;2023-02-23T10:45:21;102114.34;;;9.39;86.08
63090;BME280;49174;43.198;27.824;2023-02-23T10:47:59;102113.47;;;9.56;85.32
63090;BME280;49174;43.198;27.824;2023-02-23T10:50:26;102111.75;;;9.73;84.27
63090;BME280;49174;43.198;27.824;2023-02-23T10:52:59;102115.97;;;10.02;82.59
63090;BME280;49174;43.198;27.824;2023-02-23T10:55:29;102117.69;;;10.03;81.71
63090;BME280;49174;43.198;27.824;2023-02-23T10:58:24;102114.09;;;10.02;82.99
63090;BME280;49174;43.198;27.824;2023-02-23T11:00:56;102110.94;;;10.07;81.46
63090;BME280;49174;43.198;27.824;2023-02-23T11:03:45;102108.16;;;9.91;82.20
63090;BME280;49174;43.198;27.824;2023-02-23T11:06:33;102115.63;;;10.05;81.73
63090;BME280;49174;43.198;27.824;2023-02-23T11:12:01;102114.94;;;9.95;81.54
63090;BME280;49174;43.198;27.824;2023-02-23T11:14:29;102112.91;;;9.71;81.90
63090;BME280;49174;43.198;27.824;2023-02-23T11:16:57;102114.47;;;9.55;83.46
63090;BME280;49174;43.198;27.824;2023-02-23T11:21:56;102117.41;;;9.62;82.71
63090;BME280;49174;43.198;27.824;2023-02-23T11:24:27;102115.41;;;9.90;82.05
63090;BME280;49174;43.198;27.824;2023-02-23T11:26:58;102110.91;;;9.99;80.10
63090;BME280;49174;43.198;27.824;2023-02-23T11:29:49;102120.75;;;10.16;80.61
63090;BME280;49174;43.198;27.824;2023-02-23T11:32:20;102111.03;;;10.23;78.03
63090;BME280;49174;43.198;27.824;2023-02-23T11:34:47;102126.44;;;10.05;79.84
63090;BME280;49174;43.198;27.824;2023-02-23T11:40:00;102125.72;;;9.95;80.28
63090;BME280;49174;43.198;27.824;2023-02-23T11:42:27;102119.72;;;10.09;81.12
63090;BME280;49174;43.198;27.824;2023-02-23T11:45:17;102120.59;;;10.18;79.37
63090;BME280;49174;43.198;27.824;2023-02-23T11:47:52;102127.97;;;10.34;78.63
63090;BME280;49174;43.198;27.824;2023-02-23T11:50:26;102124.31;;;10.43;78.28
63090;BME280;49174;43.198;27.824;2023-02-23T11:53:16;102125.38;;;9.98;79.33
63090;BME280;49174;43.198;27.824;2023-02-23T11:55:51;102135.34;;;9.97;77.99
63090;BME280;49174;43.198;27.824;2023-02-23T11:58:26;102134.16;;;10.00;79.15
63090;BME280;49174;43.198;27.824;2023-02-23T12:00:59;102134.09;;;10.18;77.59
63090;BME280;49174;43.198;27.824;2023-02-23T12:03:29;102128.84;;;10.16;77.52
63090;BME280;49174;43.198;27.824;2023-02-23T12:05:57;102132.50;;;10.07;77.64
63090;BME280;49174;43.198;27.824;2023-02-23T12:11:02;102131.09;;;9.95;79.31
63090;BME280;49174;43.198;27.824;2023-02-23T12:13:44;102127.06;;;9.99;80.85
63090;BME280;49174;43.198;27.824;2023-02-23T12:16:23;102124.19;;;9.92;79.59
63090;BME280;49174;43.198;27.824;2023-02-23T12:18:56;102127.53;;;9.68;81.40
63090;BME280;49174;43.198;27.824;2023-02-23T12:21:33;102133.00;;;9.76;80.35
63090;BME280;49174;43.198;27.824;2023-02-23T12:26:33;102123.31;;;9.66;81.15
63090;BME280;49174;43.198;27.824;2023-02-23T12:29:07;102132.66;;;9.79;80.48
63090;BME280;49174;43.198;27.824;2023-02-23T12:31:48;102143.97;;;9.57;81.25
63090;BME280;49174;43.198;27.824;2023-02-23T12:34:20;102130.13;;;9.16;83.73
63090;BME280;49174;43.198;27.824;2023-02-23T12:40:23;102144.91;;;9.48;82.66
63090;BME280;49174;43.198;27.824;2023-02-23T12:42:56;102144.47;;;9.60;82.48
63090;BME280;49174;43.198;27.824;2023-02-23T12:48:17;102151.84;;;9.76;82.92
63090;BME280;49174;43.198;27.824;2023-02-23T12:50:51;102155.88;;;9.72;81.65
63090;BME280;49174;43.198;27.824;2023-02-23T12:53:31;102142.88;;;9.50;82.61
63090;BME280;49174;43.198;27.824;2023-02-23T12:56:13;102154.03;;;9.19;84.17
63090;BME280;49174;43.198;27.824;2023-02-23T13:07:21;102153.13;;;9.10;85.89
63090;BME280;49174;43.198;27.824;2023-02-23T13:12:21;102151.97;;;9.13;84.70
63090;BME280;49174;43.198;27.824;2023-02-23T13:15:09;102156.81;;;9.27;84.53
63090;BME280;49174;43.198;27.824;2023-02-23T13:18:03;102156.06;;;9.53;84.17
63090;BME280;49174;43.198;27.824;2023-02-23T13:20:46;102152.81;;;9.67;82.87
63090;BME280;49174;43.198;27.824;2023-02-23T13:23:34;102163.97;;;9.72;81.60
63090;BME280;49174;43.198;27.824;2023-02-23T13:28:41;102160.56;;;9.70;80.00
63090;BME280;49174;43.198;27.824;2023-02-23T13:31:21;102161.63;;;9.77;80.65
63090;BME280;49174;43.198;27.824;2023-02-23T13:33:48;102164.31;;;9.77;79.56
63090;BME280;49174;43.198;27.824;2023-02-23T13:36:14;102161.81;;;9.40;81.14
63090;BME280;49174;43.198;27.824;2023-02-23T13:43:59;102170.28;;;9.27;82.55
63090;BME280;49174;43.198;27.824;2023-02-23T13:46:36;102174.47;;;8.94;84.11
63090;BME280;49174;43.198;27.824;2023-02-23T13:49:21;102179.28;;;9.00;85.04
63090;BME280;49174;43.198;27.824;2023-02-23T13:51:59;102181.03;;;8.91;85.64
63090;BME280;49174;43.198;27.824;2023-02-23T13:54:33;102189.47;;;8.97;85.43
63090;BME280;49174;43.198;27.824;2023-02-23T13:57:01;102192.84;;;8.81;86.97
63090;BME280;49174;43.198;27.824;2023-02-23T13:59:37;102184.97;;;8.97;86.26
63090;BME280;49174;43.198;27.824;2023-02-23T14:05:15;102184.50;;;8.74;88.08
63090;BME280;49174;43.198;27.824;2023-02-23T14:07:45;102178.38;;;8.54;88.48
63090;BME280;49174;43.198;27.824;2023-02-23T14:10:25;102178.47;;;8.62;88.16
63090;BME280;49174;43.198;27.824;2023-02-23T14:18:04;102189.69;;;8.58;88.73
63090;BME280;49174;43.198;27.824;2023-02-23T14:21:11;102203.44;;;8.55;89.34
63090;BME280;49174;43.198;27.824;2023-02-23T14:26:34;102205.19;;;8.36;89.81
63090;BME280;49174;43.198;27.824;2023-02-23T14:29:16;102199.72;;;8.09;91.81
63090;BME280;49174;43.198;27.824;2023-02-23T14:37:41;102198.16;;;8.16;91.29
63090;BME280;49174;43.198;27.824;2023-02-23T14:40:20;102193.53;;;7.98;92.84
63090;BME280;49174;43.198;27.824;2023-02-23T14:42:51;102197.22;;;7.97;92.87
63090;BME280;49174;43.198;27.824;2023-02-23T14:45:24;102200.03;;;7.96;92.76
63090;BME280;49174;43.198;27.824;2023-02-23T14:48:01;102196.09;;;7.80;94.28
63090;BME280;49174;43.198;27.824;2023-02-23T14:52:54;102192.34;;;8.11;92.41
63090;BME280;49174;43.198;27.824;2023-02-23T14:55:26;102201.16;;;8.03;91.45
63090;BME280;49174;43.198;27.824;2023-02-23T14:57:53;102203.13;;;8.01;91.29
63090;BME280;49174;43.198;27.824;2023-02-23T15:00:30;102209.06;;;8.04;90.86
63090;BME280;49174;43.198;27.824;2023-02-23T15:03:02;102212.22;;;8.00;90.53
63090;BME280;49174;43.198;27.824;2023-02-23T15:05:51;102209.81;;;7.77;90.64
63090;BME280;49174;43.198;27.824;2023-02-23T15:08:22;102207.13;;;7.87;91.32
63090;BME280;49174;43.198;27.824;2023-02-23T15:10:51;102212.66;;;7.76;90.85
63090;BME280;49174;43.198;27.824;2023-02-23T15:13:31;102219.84;;;7.85;90.41
63090;BME280;49174;43.198;27.824;2023-02-23T15:16:02;102216.75;;;7.70;89.87
63090;BME280;49174;43.198;27.824;2023-02-23T15:18:36;102229.63;;;7.67;89.23
63090;BME280;49174;43.198;27.824;2023-02-23T15:21:11;102225.22;;;7.66;89.58
63090;BME280;49174;43.198;27.824;2023-02-23T15:23:38;102228.63;;;7.48;90.13
63090;BME280;49174;43.198;27.824;2023-02-23T15:29:16;102237.38;;;7.31;91.99
63090;BME280;49174;43.198;27.824;2023-02-23T15:31:43;102230.84;;;7.24;91.63
63090;BME280;49174;43.198;27.824;2023-02-23T15:34:27;102231.59;;;7.35;91.03
63090;BME280;49174;43.198;27.824;2023-02-23T15:37:01;102235.91;;;7.17;92.01
63090;BME280;49174;43.198;27.824;2023-02-23T15:40:09;102242.13;;;7.18;92.54
63090;BME280;49174;43.198;27.824;2023-02-23T15:42:38;102241.84;;;7.21;92.21
63090;BME280;49174;43.198;27.824;2023-02-23T15:47:52;102242.41;;;7.14;91.93
63090;BME280;49174;43.198;27.824;2023-02-23T15:50:21;102247.91;;;7.13;92.79
63090;BME280;49174;43.198;27.824;2023-02-23T15:52:57;102250.88;;;7.10;92.18
63090;BME280;49174;43.198;27.824;2023-02-23T15:55:27;102256.38;;;7.08;92.99
63090;BME280;49174;43.198;27.824;2023-02-23T15:58:01;102261.44;;;7.02;92.51
63090;BME280;49174;43.198;27.824;2023-02-23T16:00:40;102266.41;;;7.06;92.79
63090;BME280;49174;43.198;27.824;2023-02-23T16:03:07;102262.13;;;6.94;93.24
63090;BME280;49174;43.198;27.824;2023-02-23T16:05:55;102268.28;;;6.85;92.82
63090;BME280;49174;43.198;27.824;2023-02-23T16:08:24;102270.09;;;6.75;94.44
63090;BME280;49174;43.198;27.824;2023-02-23T16:13:50;102274.22;;;6.79;94.32
63090;BME280;49174;43.198;27.824;2023-02-23T16:16:17;102280.13;;;6.72;93.92
63090;BME280;49174;43.198;27.824;2023-02-23T16:18:54;102280.75;;;6.86;93.13
63090;BME280;49174;43.198;27.824;2023-02-23T16:21:27;102276.94;;;6.88;93.12
63090;BME280;49174;43.198;27.824;2023-02-23T16:23:56;102280.13;;;6.72;93.88
63090;BME280;49174;43.198;27.824;2023-02-23T16:26:36;102281.34;;;6.68;94.29
63090;BME280;49174;43.198;27.824;2023-02-23T16:29:06;102282.25;;;6.79;93.67
63090;BME280;49174;43.198;27.824;2023-02-23T16:31:43;102287.16;;;6.74;93.41
63090;BME280;49174;43.198;27.824;2023-02-23T16:34:17;102289.72;;;6.75;93.15
63090;BME280;49174;43.198;27.824;2023-02-23T16:36:48;102283.78;;;6.71;94.36
63090;BME280;49174;43.198;27.824;2023-02-23T16:39:14;102289.09;;;6.62;94.61
63090;BME280;49174;43.198;27.824;2023-02-23T16:41:43;102298.59;;;6.66;94.66
63090;BME280;49174;43.198;27.824;2023-02-23T16:44:18;102293.06;;;6.67;94.58
63090;BME280;49174;43.198;27.824;2023-02-23T16:47:09;102296.75;;;6.66;94.68
63090;BME280;49174;43.198;27.824;2023-02-23T16:49:36;102299.56;;;6.65;93.79
63090;BME280;49174;43.198;27.824;2023-02-23T16:52:05;102304.88;;;6.55;93.82
63090;BME280;49174;43.198;27.824;2023-02-23T16:54:36;102312.25;;;6.42;94.61
63090;BME280;49174;43.198;27.824;2023-02-23T16:57:05;102305.66;;;6.46;93.94
63090;BME280;49174;43.198;27.824;2023-02-23T16:59:36;102307.47;;;6.45;93.60
63090;BME280;49174;43.198;27.824;2023-02-23T17:02:02;102308.06;;;6.49;93.26
63090;BME280;49174;43.198;27.824;2023-02-23T17:04:27;102307.41;;;6.57;93.05
63090;BME280;49174;43.198;27.824;2023-02-23T17:06:53;102312.72;;;6.47;93.25
63090;BME280;49174;43.198;27.824;2023-02-23T17:09:22;102316.06;;;6.39;93.19
63090;BME280;49174;43.198;27.824;2023-02-23T17:11:48;102321.88;;;6.44;93.32
63090;BME280;49174;43.198;27.824;2023-02-23T17:14:32;102321.16;;;6.42;93.27
63090;BME280;49174;43.198;27.824;2023-02-23T17:16:57;102322.69;;;6.35;92.88
63090;BME280;49174;43.198;27.824;2023-02-23T17:19:23;102324.22;;;6.38;92.76
63090;BME280;49174;43.198;27.824;2023-02-23T17:21:49;102322.53;;;6.37;93.56
63090;BME280;49174;43.198;27.824;2023-02-23T17:24:14;102321.88;;;6.44;92.42
63090;BME280;49174;43.198;27.824;2023-02-23T17:26:40;102324.94;;;6.40;92.44
63090;BME280;49174;43.198;27.824;2023-02-23T17:29:06;102335.88;;;6.48;91.64
63090;BME280;49174;43.198;27.824;2023-02-23T17:31:32;102324.81;;;6.41;92.59
63090;BME280;49174;43.198;27.824;2023-02-23T17:33:58;102325.53;;;6.43;91.89
63090;BME280;49174;43.198;27.824;2023-02-23T17:36:24;102330.25;;;6.30;92.41
63090;BME280;49174;43.198;27.824;2023-02-23T17:38:52;102321.38;;;6.30;92.97
63090;BME280;49174;43.198;27.824;2023-02-23T17:41:23;102326.41;;;6.44;92.75
63090;BME280;49174;43.198;27.824;2023-02-23T17:43:49;102329.66;;;6.47;91.99
63090;BME280;49174;43.198;27.824;2023-02-23T22:36:00;102286.09;;;5.37;100.00
63090;BME280;49174;43.198;27.824;2023-02-23T22:38:25;102285.16;;;5.38;100.00
63090;BME280;49174;43.198;27.824;2023-02-23T22:40:52;102273.97;;;5.33;100.00
63090;BME280;49174;43.198;27.824;2023-02-23T23:29:14;102229.63;;;5.52;100.00
63090;BME280;49174;43.198;27.824;2023-02-23T23:57:51;102198.88;;;5.67;97.48
